createdAt,value
2023-09-03T00:00:44.271Z,10.95
2023-09-03T00:03:11.340Z,10.43
2023-09-03T00:05:38.658Z,12.60
2023-09-03T00:08:05.905Z,11.07
2023-09-03T00:10:36.421Z,11.02
2023-09-03T00:13:04.834Z,8.93
2023-09-03T00:15:32.335Z,10.23
2023-09-03T00:17:59.744Z,9.88
2023-09-03T00:20:26.801Z,8.68
2023-09-03T00:22:54.123Z,9.18
2023-09-03T00:25:21.004Z,8.93
2023-09-03T00:27:47.914Z,10.10
2023-09-03T00:30:15.065Z,9.82
2023-09-03T00:32:42.019Z,9.75
2023-09-03T00:35:09.501Z,9.63
2023-09-03T00:37:37.359Z,9.05
2023-09-03T00:40:04.593Z,11.95
2023-09-03T00:42:31.930Z,11.30
2023-09-03T00:44:59.260Z,13.93
2023-09-03T00:47:26.635Z,9.88
2023-09-03T00:49:54.097Z,11.02
2023-09-03T00:52:22.938Z,11.73
2023-09-03T00:54:50.363Z,9.73
2023-09-03T00:57:17.655Z,9.18
2023-09-03T00:59:46.617Z,10.30
2023-09-03T01:02:17.794Z,12.88
2023-09-03T01:04:45.072Z,11.43
2023-09-03T01:07:13.148Z,9.25
2023-09-03T01:09:41.542Z,12.45
2023-09-03T01:12:16.317Z,12.52
2023-09-03T01:14:45.893Z,8.35
2023-09-03T01:17:13.792Z,9.77
2023-09-03T01:20:01.901Z,10.47
2023-09-03T01:22:56.532Z,10.98
2023-09-03T01:25:49.972Z,10.38
2023-09-03T01:28:30.435Z,9.80
2023-09-03T01:31:08.256Z,10.25
2023-09-03T01:33:38.430Z,9.80
2023-09-03T01:36:07.573Z,10.13
2023-09-03T01:38:35.070Z,11.30
2023-09-03T01:41:02.771Z,9.38
2023-09-03T01:43:31.047Z,9.43
2023-09-03T01:46:07.396Z,11.10
2023-09-03T01:48:50.931Z,9.35
2023-09-03T01:51:34.890Z,9.05
2023-09-03T01:54:19.634Z,10.48
2023-09-03T01:57:06.761Z,8.73
2023-09-03T01:59:44.414Z,10.17
2023-09-03T02:02:13.108Z,12.23
2023-09-03T02:04:40.657Z,10.88
2023-09-03T02:07:08.029Z,11.20
2023-09-03T02:09:35.398Z,10.00
2023-09-03T02:12:02.940Z,7.50
2023-09-03T02:14:30.350Z,8.23
2023-09-03T02:16:57.205Z,10.85
2023-09-03T02:19:24.714Z,9.80
2023-09-03T02:21:52.796Z,10.85
2023-09-03T02:24:20.272Z,9.80
2023-09-03T02:26:48.164Z,9.80
2023-09-03T02:29:15.677Z,12.73
2023-09-03T02:31:42.635Z,7.53
2023-09-03T02:34:10.822Z,10.48
2023-09-03T02:36:39.189Z,10.27
2023-09-03T02:39:07.425Z,9.82
2023-09-03T02:41:35.138Z,10.40
2023-09-03T02:44:03.012Z,12.05
2023-09-03T02:46:30.385Z,11.45
2023-09-03T02:48:57.476Z,9.03
2023-09-03T02:51:24.861Z,11.75
2023-09-03T02:53:52.789Z,9.93
2023-09-03T02:56:20.003Z,10.07
2023-09-03T02:58:50.515Z,9.65
2023-09-03T03:01:20.102Z,10.23
2023-09-03T03:03:48.140Z,10.02
2023-09-03T03:06:16.041Z,8.88
2023-09-03T03:08:43.565Z,10.45
2023-09-03T03:11:17.825Z,9.40
2023-09-03T03:13:53.480Z,8.90
2023-09-03T03:16:23.567Z,12.88
2023-09-03T03:19:06.178Z,8.88
2023-09-03T03:21:36.640Z,8.20
2023-09-03T03:24:06.193Z,11.35
2023-09-03T03:26:36.344Z,11.60
2023-09-03T03:29:05.854Z,12.45
2023-09-03T03:31:36.872Z,11.55
2023-09-03T03:34:04.734Z,11.57
2023-09-03T03:36:33.537Z,10.90
2023-09-03T03:39:01.113Z,11.73
2023-09-03T03:41:28.725Z,10.85
2023-09-03T03:43:56.113Z,10.07
2023-09-03T03:46:26.461Z,11.98
2023-09-03T03:48:56.737Z,11.52
2023-09-03T03:51:23.648Z,11.07
2023-09-03T03:53:51.241Z,12.05
2023-09-03T03:56:19.049Z,11.32
2023-09-03T03:58:47.477Z,10.68
2023-09-03T04:01:20.468Z,12.50
2023-09-03T04:03:53.369Z,9.07
2023-09-03T04:06:20.896Z,8.90
2023-09-03T04:08:48.696Z,9.27
2023-09-03T04:11:22.132Z,8.60
2023-09-03T04:13:49.440Z,10.30
2023-09-03T04:16:18.991Z,8.20
2023-09-03T04:18:50.272Z,13.82
2023-09-03T04:21:18.040Z,9.85
2023-09-03T04:23:45.196Z,10.40
2023-09-03T04:26:12.599Z,10.15
2023-09-03T04:28:46.559Z,8.60
2023-09-03T04:31:14.837Z,9.25
2023-09-03T04:33:42.741Z,9.63
2023-09-03T04:36:11.435Z,8.20
2023-09-03T04:38:39.287Z,8.80
2023-09-03T04:41:06.909Z,9.10
2023-09-03T04:44:07.843Z,9.70
2023-09-03T04:46:38.309Z,8.93
2023-09-03T04:49:05.399Z,10.30
2023-09-03T04:51:32.737Z,12.43
2023-09-03T04:53:59.761Z,9.03
2023-09-03T04:56:26.681Z,8.70
2023-09-03T04:58:55.069Z,10.05
2023-09-03T05:01:23.587Z,11.85
2023-09-03T05:03:55.261Z,9.10
2023-09-03T05:06:23.580Z,9.70
2023-09-03T05:08:53.131Z,8.23
2023-09-03T05:11:21.429Z,9.40
2023-09-03T05:13:50.315Z,13.35
2023-09-03T05:16:18.834Z,10.63
2023-09-03T05:18:46.338Z,9.48
2023-09-03T05:21:15.067Z,10.85
2023-09-03T05:23:42.366Z,10.82
2023-09-03T05:26:09.867Z,11.77
2023-09-03T05:28:40.082Z,9.20
2023-09-03T05:31:09.002Z,10.10
2023-09-03T05:33:36.717Z,9.10
2023-09-03T05:36:04.566Z,14.15
2023-09-03T05:38:31.452Z,9.60
2023-09-03T05:41:01.716Z,9.98
2023-09-03T05:43:29.739Z,12.27
2023-09-03T05:45:58.327Z,11.18
2023-09-03T05:48:26.127Z,10.85
2023-09-03T05:51:00.668Z,12.65
2023-09-03T05:53:29.274Z,10.80
2023-09-03T05:56:08.028Z,15.53
2023-09-03T05:58:37.257Z,12.32
2023-09-03T06:01:05.758Z,10.70
2023-09-03T06:03:33.202Z,11.23
2023-09-03T06:06:06.875Z,11.40
2023-09-03T06:08:36.941Z,12.77
2023-09-03T06:11:05.474Z,12.00
2023-09-03T06:13:34.295Z,10.85
2023-09-03T06:16:01.799Z,11.30
2023-09-03T06:18:28.837Z,11.43
2023-09-03T06:20:55.764Z,12.37
2023-09-03T06:23:22.853Z,12.95
2023-09-03T06:25:51.579Z,13.73
2023-09-03T06:28:19.163Z,13.73
2023-09-03T06:30:46.749Z,14.55
2023-09-03T06:33:14.222Z,12.40
2023-09-03T06:35:41.627Z,12.18
2023-09-03T06:38:08.906Z,15.50
2023-09-03T06:40:36.210Z,15.32
2023-09-03T06:43:03.210Z,17.73
2023-09-03T06:45:30.221Z,14.17
2023-09-03T06:47:57.258Z,13.85
2023-09-03T06:50:24.177Z,13.95
2023-09-03T06:52:51.409Z,16.90
2023-09-03T06:55:19.452Z,15.07
2023-09-03T06:57:46.802Z,14.25
2023-09-03T07:00:14.434Z,14.43
2023-09-03T07:02:41.538Z,15.90
2023-09-03T07:05:09.086Z,18.65
2023-09-03T07:07:36.996Z,16.08
2023-09-03T07:10:04.428Z,20.67
2023-09-03T07:12:31.839Z,17.25
2023-09-03T07:14:59.272Z,15.75
2023-09-03T07:17:26.236Z,17.88
2023-09-03T07:19:56.551Z,15.80
2023-09-03T07:22:23.930Z,21.73
2023-09-03T07:24:54.430Z,20.17
2023-09-03T07:27:21.593Z,16.60
2023-09-03T07:29:53.712Z,16.55
2023-09-03T07:32:23.809Z,19.42
2023-09-03T07:34:51.931Z,16.70
2023-09-03T07:37:19.291Z,18.45
2023-09-03T07:39:47.312Z,18.23
2023-09-03T07:42:14.555Z,19.98
2023-09-03T07:44:41.466Z,17.98
2023-09-03T07:47:08.745Z,17.80
2023-09-03T07:49:36.090Z,15.52
2023-09-03T07:52:02.955Z,18.90
2023-09-03T07:54:29.831Z,14.85
2023-09-03T07:56:56.749Z,17.50
2023-09-03T07:59:23.668Z,17.52
2023-09-03T08:01:50.547Z,16.88
2023-09-03T08:04:17.561Z,16.17
2023-09-03T08:06:44.796Z,16.42
2023-09-03T08:09:12.169Z,13.82
2023-09-03T08:11:39.627Z,15.27
2023-09-03T08:14:07.192Z,14.02
2023-09-03T08:16:34.561Z,14.43
2023-09-03T08:19:01.532Z,14.98
2023-09-03T08:21:28.348Z,15.27
2023-09-03T08:23:55.612Z,13.32
2023-09-03T08:26:22.541Z,15.23
2023-09-03T08:28:49.391Z,13.85
2023-09-03T08:31:16.377Z,13.82
2023-09-03T08:33:43.719Z,14.10
2023-09-03T08:36:10.977Z,15.45
2023-09-03T08:38:38.252Z,11.80
2023-09-03T08:41:05.525Z,13.85
2023-09-03T08:43:32.655Z,11.95
2023-09-03T08:46:08.668Z,11.05
2023-09-03T08:48:36.200Z,16.73
2023-09-03T08:51:03.961Z,9.25
2023-09-03T08:53:32.917Z,12.05
2023-09-03T08:56:00.257Z,11.98
2023-09-03T08:58:27.646Z,11.77
2023-09-03T09:00:57.107Z,11.27
2023-09-03T09:03:29.122Z,8.93
2023-09-03T09:05:56.673Z,7.97
2023-09-03T09:08:24.922Z,9.38
2023-09-03T09:10:54.437Z,7.57
2023-09-03T09:13:25.543Z,10.70
2023-09-03T09:15:52.821Z,10.32
2023-09-03T09:18:20.232Z,9.43
2023-09-03T09:20:48.810Z,10.50
2023-09-03T09:23:22.049Z,7.57
2023-09-03T09:25:49.601Z,6.80
2023-09-03T09:28:16.530Z,7.73
2023-09-03T09:30:59.778Z,10.20
2023-09-03T09:33:28.125Z,7.18
2023-09-03T09:35:55.729Z,7.40
2023-09-03T09:38:35.667Z,5.10
2023-09-03T09:41:25.054Z,8.23
2023-09-03T09:43:52.619Z,6.25
2023-09-03T09:46:30.647Z,6.53
2023-09-03T09:49:01.863Z,7.05
2023-09-03T09:51:30.341Z,7.55
2023-09-03T09:54:02.298Z,7.07
2023-09-03T09:56:30.672Z,7.15
2023-09-03T09:59:00.787Z,5.90
2023-09-03T10:01:41.696Z,6.63
2023-09-03T10:04:09.009Z,6.95
2023-09-03T10:06:37.572Z,5.97
2023-09-03T10:09:06.276Z,7.82
2023-09-03T10:11:33.191Z,6.20
2023-09-03T10:14:00.041Z,5.85
2023-09-03T10:16:27.696Z,6.20
2023-09-03T10:18:56.258Z,6.83
2023-09-03T10:21:42.295Z,9.38
2023-09-03T10:24:16.333Z,5.43
2023-09-03T10:26:47.108Z,7.63
2023-09-03T10:29:18.501Z,7.22
2023-09-03T10:31:46.196Z,6.17
2023-09-03T10:34:16.148Z,7.45
2023-09-03T10:37:06.118Z,7.07
2023-09-03T10:39:33.900Z,5.82
2023-09-03T10:42:19.371Z,5.10
2023-09-03T10:44:52.100Z,5.93
2023-09-03T10:47:19.709Z,4.75
2023-09-03T10:49:49.347Z,5.03
2023-09-03T10:52:29.473Z,4.82
2023-09-03T10:55:17.365Z,5.75
2023-09-03T10:57:49.336Z,4.63
2023-09-03T11:00:25.364Z,6.43
2023-09-03T11:03:16.275Z,5.07
2023-09-03T11:06:05.158Z,6.82
2023-09-03T11:08:35.636Z,5.22
2023-09-03T11:11:02.986Z,4.03
2023-09-03T11:13:37.741Z,6.05
2023-09-03T11:16:05.767Z,4.22
2023-09-03T11:18:33.844Z,4.57
2023-09-03T11:21:02.253Z,3.65
2023-09-03T11:23:33.930Z,4.17
2023-09-03T11:26:04.579Z,4.13
2023-09-03T11:28:37.172Z,4.72
2023-09-03T11:31:04.824Z,5.65
2023-09-03T11:33:32.025Z,4.93
2023-09-03T11:36:01.235Z,4.00
2023-09-03T11:38:28.549Z,3.55
2023-09-03T11:40:59.940Z,4.80
2023-09-03T11:43:32.463Z,4.32
2023-09-03T11:46:05.256Z,4.05
2023-09-03T11:48:33.449Z,3.27
2023-09-03T11:51:00.457Z,2.78
2023-09-03T11:53:39.594Z,2.97
2023-09-03T11:56:07.916Z,3.72
2023-09-03T11:58:35.100Z,3.97
2023-09-03T12:01:02.383Z,5.37
2023-09-03T12:03:29.430Z,3.30
2023-09-03T12:05:56.528Z,3.08
2023-09-03T12:08:23.495Z,6.78
2023-09-03T12:10:51.443Z,5.00
2023-09-03T12:13:31.462Z,4.13
2023-09-03T12:16:12.651Z,4.55
2023-09-03T12:18:40.260Z,4.65
2023-09-03T12:21:09.575Z,5.43
2023-09-03T12:23:38.279Z,4.78
2023-09-03T12:26:06.235Z,4.37
2023-09-03T12:28:38.471Z,6.00
2023-09-03T12:31:08.700Z,10.68
2023-09-03T12:33:38.524Z,7.07
2023-09-03T12:36:13.281Z,6.20
2023-09-03T12:38:55.373Z,4.97
2023-09-03T12:41:23.737Z,6.10
2023-09-03T12:43:50.938Z,7.05
2023-09-03T12:46:17.987Z,6.97
2023-09-03T12:48:45.727Z,5.75
2023-09-03T12:51:17.468Z,5.37
2023-09-03T12:53:46.116Z,7.63
2023-09-03T12:56:13.609Z,5.35
2023-09-03T12:58:41.044Z,6.15
2023-09-03T13:01:09.609Z,5.72
2023-09-03T13:03:36.982Z,6.17
2023-09-03T13:06:04.171Z,5.63
2023-09-03T13:08:33.308Z,15.27
2023-09-03T13:11:01.384Z,9.13
2023-09-03T13:13:29.490Z,5.93
2023-09-03T13:15:56.743Z,10.27
2023-09-03T13:18:23.818Z,6.80
2023-09-03T13:20:50.765Z,6.82
2023-09-03T13:23:18.016Z,5.72
2023-09-03T13:25:44.976Z,6.13
2023-09-03T13:28:13.293Z,7.73
2023-09-03T13:30:45.284Z,8.00
2023-09-03T13:33:21.013Z,4.90
2023-09-03T13:35:55.030Z,5.50
2023-09-03T13:38:22.342Z,6.00
2023-09-03T13:40:54.032Z,6.20
2023-09-03T13:43:24.364Z,6.70
2023-09-03T13:46:00.510Z,4.82
2023-09-03T13:48:28.261Z,7.13
2023-09-03T13:50:58.054Z,5.45
2023-09-03T13:53:25.380Z,5.43
2023-09-03T13:55:52.516Z,5.13
2023-09-03T13:58:19.883Z,4.57
2023-09-03T14:00:47.115Z,5.88
2023-09-03T14:03:14.200Z,5.38
2023-09-03T14:05:41.345Z,4.93
2023-09-03T14:08:08.299Z,5.80
2023-09-03T14:10:35.206Z,5.05
2023-09-03T14:13:02.313Z,4.00
2023-09-03T14:15:32.289Z,6.28
2023-09-03T14:17:59.209Z,5.03
2023-09-03T14:20:26.196Z,5.68
2023-09-03T14:22:54.529Z,4.95
2023-09-03T14:25:23.221Z,4.28
2023-09-03T14:27:50.584Z,4.90
2023-09-03T14:30:17.756Z,5.77
2023-09-03T14:32:44.627Z,5.55
2023-09-03T14:35:11.699Z,4.15
2023-09-03T14:37:38.685Z,5.10
2023-09-03T14:40:06.871Z,4.82
2023-09-03T14:42:33.820Z,5.00
2023-09-03T14:45:00.900Z,4.18
2023-09-03T14:47:27.973Z,5.63
2023-09-03T14:49:55.027Z,3.90
2023-09-03T14:52:21.987Z,4.93
2023-09-03T14:54:48.823Z,4.30
2023-09-03T14:57:15.732Z,4.15
2023-09-03T14:59:42.823Z,5.22
2023-09-03T15:02:09.827Z,3.67
2023-09-03T15:04:36.920Z,4.63
2023-09-03T15:07:04.191Z,3.33
2023-09-03T15:09:31.098Z,5.95
2023-09-03T15:11:58.002Z,3.90
2023-09-03T15:14:24.987Z,3.67
2023-09-03T15:16:51.950Z,4.18
2023-09-03T15:19:20.521Z,3.63
2023-09-03T15:21:48.550Z,3.47
2023-09-03T15:24:16.307Z,4.40
2023-09-03T15:26:45.643Z,3.60
2023-09-03T15:29:12.736Z,4.00
2023-09-03T15:31:39.789Z,4.20
2023-09-03T15:34:09.874Z,4.00
2023-09-03T15:36:36.843Z,3.47
2023-09-03T15:39:04.102Z,5.80
2023-09-03T15:41:31.174Z,3.53
2023-09-03T15:44:02.141Z,4.57
2023-09-03T15:46:29.260Z,4.32
2023-09-03T15:48:56.570Z,5.72
2023-09-03T15:51:23.520Z,4.72
2023-09-03T15:53:50.372Z,4.78
2023-09-03T15:56:17.271Z,3.80
2023-09-03T15:58:44.231Z,3.80
2023-09-03T16:01:13.221Z,4.28
2023-09-03T16:03:40.362Z,3.60
2023-09-03T16:06:07.938Z,5.00
2023-09-03T16:08:35.118Z,4.87
2023-09-03T16:11:11.158Z,4.15
2023-09-03T16:13:38.187Z,4.32
2023-09-03T16:16:09.018Z,5.75
2023-09-03T16:18:36.192Z,5.18
2023-09-03T16:21:03.128Z,4.00
2023-09-03T16:23:30.001Z,5.05
2023-09-03T16:25:56.913Z,18.88
2023-09-03T16:28:24.188Z,5.60
2023-09-03T16:30:58.041Z,4.15
2023-09-03T16:33:25.061Z,7.00
2023-09-03T16:35:52.159Z,4.50
2023-09-03T16:38:19.039Z,4.20
2023-09-03T16:40:45.979Z,4.35
2023-09-03T16:43:12.921Z,4.30
2023-09-03T16:45:42.922Z,3.93
2023-09-03T16:48:09.817Z,5.63
2023-09-03T16:50:36.786Z,4.43
2023-09-03T16:53:03.859Z,6.78
2023-09-03T16:55:31.894Z,5.25
2023-09-03T16:57:58.771Z,4.03
2023-09-03T17:00:25.981Z,5.13
2023-09-03T17:02:54.011Z,5.95
2023-09-03T17:05:22.639Z,4.95
2023-09-03T17:07:49.628Z,4.45
2023-09-03T17:10:17.923Z,7.53
2023-09-03T17:12:44.873Z,5.90
2023-09-03T17:15:12.107Z,4.35
2023-09-03T17:17:40.925Z,5.03
2023-09-03T17:20:09.677Z,5.68
2023-09-03T17:22:36.690Z,5.83
2023-09-03T17:25:03.886Z,5.38
2023-09-03T17:27:30.745Z,6.72
2023-09-03T17:29:57.649Z,5.93
2023-09-03T17:32:24.777Z,4.45
2023-09-03T17:34:52.480Z,5.80
2023-09-03T17:37:19.456Z,5.55
2023-09-03T17:39:46.346Z,7.20
2023-09-03T17:42:13.699Z,5.40
2023-09-03T17:44:40.633Z,6.72
2023-09-03T17:47:07.559Z,5.43
2023-09-03T17:49:34.464Z,6.22
2023-09-03T17:52:01.410Z,6.07
2023-09-03T17:54:28.296Z,7.03
2023-09-03T17:56:55.605Z,8.73
2023-09-03T17:59:22.448Z,9.53
2023-09-03T18:01:49.389Z,6.95
2023-09-03T18:04:16.422Z,7.78
2023-09-03T18:06:43.367Z,5.82
2023-09-03T18:09:11.549Z,6.82
2023-09-03T18:11:38.421Z,4.83
2023-09-03T18:14:05.351Z,6.00
2023-09-03T18:16:33.733Z,5.43
2023-09-03T18:19:00.682Z,5.22
2023-09-03T18:21:27.507Z,5.65
2023-09-03T18:23:54.919Z,6.00
2023-09-03T18:26:23.840Z,8.50
2023-09-03T18:28:50.846Z,6.07
2023-09-03T18:31:17.982Z,7.40
2023-09-03T18:33:44.994Z,6.85
2023-09-03T18:36:12.086Z,7.00
2023-09-03T18:38:39.098Z,6.30
2023-09-03T18:41:06.009Z,6.68
2023-09-03T18:43:33.121Z,6.38
2023-09-03T18:46:00.879Z,5.80
2023-09-03T18:48:27.846Z,6.60
2023-09-03T18:50:54.853Z,5.63
2023-09-03T18:53:23.255Z,6.68
2023-09-03T18:55:50.331Z,8.40
2023-09-03T18:58:17.268Z,7.82
2023-09-03T19:00:44.194Z,6.70
2023-09-03T19:03:11.122Z,7.38
2023-09-03T19:05:42.565Z,6.93
2023-09-03T19:08:09.522Z,6.45
2023-09-03T19:10:36.789Z,6.85
2023-09-03T19:13:07.141Z,6.70
2023-09-03T19:15:40.785Z,6.85
2023-09-03T19:18:09.473Z,9.18
2023-09-03T19:20:37.621Z,6.95
2023-09-03T19:23:06.535Z,6.85
2023-09-03T19:25:39.676Z,8.52
2023-09-03T19:28:07.004Z,6.25
2023-09-03T19:30:34.042Z,5.70
2023-09-03T19:33:00.970Z,6.45
2023-09-03T19:35:28.567Z,10.00
2023-09-03T19:37:55.945Z,5.82
2023-09-03T19:40:23.315Z,7.22
2023-09-03T19:42:53.430Z,8.10
2023-09-03T19:45:20.981Z,5.95
2023-09-03T19:47:47.985Z,6.22
2023-09-03T19:50:15.517Z,7.03
2023-09-03T19:52:43.216Z,6.57
2023-09-03T19:55:10.421Z,5.32
2023-09-03T19:57:37.747Z,5.78
2023-09-03T20:00:06.471Z,5.00
2023-09-03T20:02:38.031Z,7.95
2023-09-03T20:05:05.530Z,6.78
2023-09-03T20:07:32.406Z,7.47
2023-09-03T20:09:59.674Z,5.60
2023-09-03T20:12:26.491Z,7.55
2023-09-03T20:14:53.833Z,6.30
2023-09-03T20:17:20.770Z,5.97
2023-09-03T20:19:48.146Z,8.15
2023-09-03T20:22:15.425Z,9.00
2023-09-03T20:24:42.818Z,9.95
2023-09-03T20:27:12.646Z,7.47
2023-09-03T20:29:41.714Z,12.88
2023-09-03T20:32:11.337Z,12.65
2023-09-03T20:34:43.531Z,13.48
2023-09-03T20:37:11.285Z,12.15
2023-09-03T20:39:41.031Z,9.07
2023-09-03T20:42:08.830Z,8.65
2023-09-03T20:44:35.776Z,7.63
2023-09-03T20:47:02.682Z,6.80
2023-09-03T20:49:29.622Z,10.23
2023-09-03T20:51:56.547Z,7.45
2023-09-03T20:54:23.491Z,9.18
2023-09-03T20:56:50.814Z,7.97
2023-09-03T20:59:17.718Z,6.82
2023-09-03T21:01:44.589Z,7.18
2023-09-03T21:04:11.500Z,6.72
2023-09-03T21:06:38.426Z,6.70
2023-09-03T21:09:05.482Z,7.55
2023-09-03T21:11:36.524Z,7.85
2023-09-03T21:14:03.970Z,5.70
2023-09-03T21:16:31.854Z,7.68
2023-09-03T21:18:59.343Z,8.35
2023-09-03T21:21:28.404Z,6.35
2023-09-03T21:23:55.717Z,7.63
2023-09-03T21:26:24.677Z,13.45
2023-09-03T21:28:51.548Z,6.75
2023-09-03T21:31:19.463Z,9.18
2023-09-03T21:33:50.484Z,7.47
2023-09-03T21:36:21.930Z,8.60
2023-09-03T21:38:50.259Z,7.75
2023-09-03T21:41:17.467Z,8.38
2023-09-03T21:43:46.295Z,7.47
2023-09-03T21:46:13.646Z,7.28
2023-09-03T21:48:41.055Z,9.80
2023-09-03T21:51:18.627Z,10.63
2023-09-03T21:53:47.183Z,8.30
2023-09-03T21:56:14.669Z,8.65
2023-09-03T21:58:42.178Z,7.10
2023-09-03T22:01:09.450Z,7.72
2023-09-03T22:03:36.457Z,8.70
2023-09-03T22:06:05.632Z,11.77
2023-09-03T22:08:33.783Z,11.65
2023-09-03T22:11:01.379Z,7.35
2023-09-03T22:13:30.426Z,9.68
2023-09-03T22:15:58.088Z,11.65
2023-09-03T22:18:25.602Z,7.80
2023-09-03T22:20:53.183Z,8.73
2023-09-03T22:23:20.478Z,8.13
2023-09-03T22:25:48.112Z,9.48
2023-09-03T22:28:14.994Z,12.30
2023-09-03T22:30:42.261Z,11.65
2023-09-03T22:33:09.609Z,11.55
2023-09-03T22:35:36.895Z,11.65
2023-09-03T22:38:04.214Z,6.93
2023-09-03T22:40:31.737Z,6.90
2023-09-03T22:42:59.173Z,9.45
2023-09-03T22:45:26.686Z,7.65
2023-09-03T22:47:54.063Z,8.10
2023-09-03T22:50:20.977Z,11.63
2023-09-03T22:52:48.273Z,8.88
2023-09-03T22:55:15.749Z,8.10
2023-09-03T22:57:42.721Z,8.88
2023-09-03T23:00:10.674Z,7.68
2023-09-03T23:02:38.076Z,8.25
2023-09-03T23:05:05.891Z,7.65
2023-09-03T23:07:32.985Z,7.15
2023-09-03T23:10:02.310Z,7.35
2023-09-03T23:12:29.891Z,11.55
2023-09-03T23:14:56.834Z,10.75
2023-09-03T23:17:24.133Z,9.07
2023-09-03T23:19:51.419Z,11.10
2023-09-03T23:22:18.380Z,8.57
2023-09-03T23:24:45.637Z,8.80
2023-09-03T23:27:12.884Z,7.05
2023-09-03T23:29:44.365Z,8.23
2023-09-03T23:32:11.380Z,9.80
2023-09-03T23:34:38.819Z,7.90
2023-09-03T23:37:06.418Z,6.97
2023-09-03T23:39:34.414Z,8.43
2023-09-03T23:42:01.537Z,9.93
2023-09-03T23:44:28.874Z,9.27
2023-09-03T23:47:06.649Z,7.97
2023-09-03T23:49:40.105Z,9.45
2023-09-03T23:52:08.192Z,9.02
2023-09-03T23:54:35.260Z,9.43
2023-09-03T23:57:02.609Z,9.13
2023-09-03T23:59:30.802Z,8.55
